Time;durP1;ratioP1;P1;durP2;ratioP2;P2;SDS_P1;SDS_P2;PMS_P1;PMS_P2;Temp;Humidity;BMP_temperature;BMP_pressure;BME280_temperature;BME280_humidity;BME280_pressure;Samples;Min_cycle;Max_cycle;Signal;HPM_P1;HPM_P2
2024/04/12 00:01:16;;;;;;;5.83;3.80;;;10.00;69.80;;;;;;5373350;26;20473;-78
2024/04/12 00:03:43;;;;;;;7.97;3.90;;;10.10;70.10;;;;;;5373693;26;20472;-75
2024/04/12 00:06:17;;;;;;;9.40;4.10;;;10.00;70.10;;;;;;5375912;26;20473;-75
2024/04/12 00:08:47;;;;;;;6.87;3.83;;;10.00;70.10;;;;;;5358691;26;20468;-76
2024/04/12 00:11:20;;;;;;;12.37;4.97;;;10.00;70.40;;;;;;5370339;26;20480;-76
2024/04/12 00:13:47;;;;;;;15.87;5.10;;;10.00;70.10;;;;;;5374914;26;20659;-77
2024/04/12 00:16:17;;;;;;;9.43;4.40;;;9.90;70.40;;;;;;5376771;26;21008;-74
2024/04/12 00:18:45;;;;;;;9.37;4.13;;;9.70;70.70;;;;;;5378248;26;20469;-76
2024/04/12 00:21:11;;;;;;;8.07;4.20;;;9.60;71.30;;;;;;5373132;26;20533;-76
2024/04/12 00:23:40;;;;;;;9.20;4.37;;;9.50;71.70;;;;;;5383213;26;20560;-75
2024/04/12 00:26:07;;;;;;;9.83;4.13;;;9.50;71.80;;;;;;5373146;26;21098;-75
2024/04/12 00:28:34;;;;;;;8.13;4.17;;;9.50;72.10;;;;;;5388376;26;20465;-75
2024/04/12 00:31:00;;;;;;;6.30;3.77;;;9.40;72.00;;;;;;5347730;26;20532;-76
2024/04/12 00:33:33;;;;;;;7.90;3.70;;;9.40;72.40;;;;;;5373075;26;20981;-77
2024/04/12 00:36:07;;;;;;;14.13;4.30;;;9.50;72.40;;;;;;5380710;26;20473;-77
2024/04/12 00:38:36;;;;;;;6.43;3.70;;;9.50;72.30;;;;;;5381222;26;20472;-75
2024/04/12 00:41:14;;;;;;;7.70;4.07;;;9.60;71.60;;;;;;5380639;26;20533;-75
2024/04/12 00:43:51;;;;;;;5.70;3.50;;;9.60;71.60;;;;;;5372812;26;20473;-76
2024/04/12 00:46:24;;;;;;;5.57;3.90;;;9.60;71.70;;;;;;5379599;26;20473;-77
2024/04/12 00:48:52;;;;;;;9.73;4.10;;;9.60;71.70;;;;;;5346911;26;20856;-76
2024/04/12 00:51:24;;;;;;;8.40;4.63;;;9.50;72.00;;;;;;5375372;26;20469;-78
2024/04/12 00:53:57;;;;;;;9.13;4.50;;;9.30;72.30;;;;;;5377378;26;20996;-77
2024/04/12 00:56:27;;;;;;;9.87;4.60;;;9.40;72.40;;;;;;5379150;26;20830;-74
2024/04/12 00:58:56;;;;;;;7.93;3.47;;;9.40;72.10;;;;;;5383069;26;20480;-75
2024/04/12 01:01:24;;;;;;;6.50;3.83;;;9.30;72.10;;;;;;5380955;26;20482;-75
2024/04/12 01:03:53;;;;;;;8.90;3.83;;;9.40;72.40;;;;;;5392754;26;20664;-74
2024/04/12 01:06:24;;;;;;;12.80;4.27;;;9.50;72.40;;;;;;5382094;26;20544;-75
2024/04/12 01:08:58;;;;;;;5.90;4.07;;;9.60;71.70;;;;;;5375223;26;21020;-75
2024/04/12 01:11:26;;;;;;;7.30;3.90;;;9.60;71.60;;;;;;5371113;26;20478;-74
2024/04/12 01:13:52;;;;;;;9.50;4.10;;;9.60;71.80;;;;;;5346392;26;20602;-76
2024/04/12 01:16:18;;;;;;;8.07;3.60;;;9.60;71.40;;;;;;5377160;26;20525;-75
2024/04/12 01:18:45;;;;;;;6.57;3.67;;;9.60;71.60;;;;;;5376661;26;20480;-75
2024/04/12 01:21:11;;;;;;;5.17;3.50;;;9.50;71.60;;;;;;5331676;26;20547;-74
2024/04/12 01:23:48;;;;;;;7.53;3.73;;;9.50;72.10;;;;;;5371175;26;20469;-74
2024/04/12 01:26:17;;;;;;;8.50;3.83;;;9.40;72.00;;;;;;5343605;26;20238;-75
2024/04/12 01:28:43;;;;;;;6.97;4.27;;;9.30;72.30;;;;;;5371837;26;20556;-75
2024/04/12 01:31:14;;;;;;;7.23;3.90;;;9.30;72.60;;;;;;5371040;26;20457;-76
2024/04/12 01:33:48;;;;;;;5.17;3.30;;;9.30;72.40;;;;;;5345847;26;20468;-75
2024/04/12 01:36:21;;;;;;;6.57;3.97;;;9.30;72.90;;;;;;5376248;26;20484;-75
2024/04/12 01:38:54;;;;;;;7.17;3.60;;;9.20;73.20;;;;;;5377832;26;20476;-74
2024/04/12 01:41:31;;;;;;;6.30;3.60;;;9.30;73.00;;;;;;5367349;26;20525;-74
2024/04/12 01:44:04;;;;;;;9.90;3.90;;;9.30;72.90;;;;;;5373886;26;20524;-77
2024/04/12 01:46:31;;;;;;;7.50;3.07;;;9.40;72.40;;;;;;5374887;26;20533;-75
2024/04/12 01:48:59;;;;;;;6.20;3.93;;;9.40;72.30;;;;;;5367448;26;20998;-77
2024/04/12 01:51:25;;;;;;;7.27;3.97;;;9.40;72.40;;;;;;5367242;26;20908;-73
2024/04/12 01:53:57;;;;;;;6.93;4.43;;;9.50;71.60;;;;;;5388534;26;20456;-75
2024/04/12 01:56:24;;;;;;;7.30;3.93;;;9.40;71.70;;;;;;5353021;26;20568;-77
2024/04/12 01:58:51;;;;;;;7.50;3.70;;;9.50;71.60;;;;;;5374871;26;20830;-76
2024/04/12 02:01:17;;;;;;;8.53;4.20;;;9.40;71.40;;;;;;5366024;26;20526;-79
2024/04/12 02:03:43;;;;;;;7.63;3.83;;;9.30;71.80;;;;;;5379645;26;20469;-76
2024/04/12 02:06:09;;;;;;;6.63;3.80;;;9.20;72.30;;;;;;5378959;26;20477;-77
2024/04/12 02:08:35;;;;;;;9.80;4.60;;;9.20;72.70;;;;;;5375114;26;20822;-77
2024/04/12 02:11:08;;;;;;;6.40;4.20;;;9.10;72.90;;;;;;5372911;26;22535;-78
2024/04/12 02:13:37;;;;;;;6.73;3.67;;;9.00;73.20;;;;;;5374706;26;20466;-77
2024/04/12 02:16:04;;;;;;;8.00;4.23;;;9.00;73.60;;;;;;5350472;26;20481;-78
2024/04/12 02:18:35;;;;;;;9.10;5.00;;;9.00;73.50;;;;;;5385124;26;20582;-78
2024/04/12 02:21:05;;;;;;;6.90;4.03;;;9.00;73.60;;;;;;5374372;26;20461;-78
2024/04/12 02:23:34;;;;;;;9.50;3.80;;;9.00;73.70;;;;;;5377527;26;20628;-76
2024/04/12 02:26:01;;;;;;;5.83;4.43;;;9.10;73.50;;;;;;5379675;26;21172;-78
2024/04/12 02:28:27;;;;;;;10.63;4.20;;;9.10;73.70;;;;;;5381338;26;20528;-79
2024/04/12 02:30:55;;;;;;;8.10;3.90;;;9.10;73.50;;;;;;5377690;26;20465;-80
2024/04/12 02:33:24;;;;;;;6.57;3.77;;;9.10;73.60;;;;;;5369626;26;20476;-76
2024/04/12 02:35:59;;;;;;;9.40;4.47;;;9.00;73.90;;;;;;5385260;26;20907;-78
2024/04/12 02:38:27;;;;;;;6.53;3.87;;;9.00;74.20;;;;;;5371217;26;20551;-78
2024/04/12 02:40:52;;;;;;;6.23;3.90;;;9.00;74.30;;;;;;5361691;26;20471;-76
2024/04/12 02:43:24;;;;;;;8.00;3.70;;;9.10;74.20;;;;;;5370461;26;20528;-77
2024/04/12 02:46:00;;;;;;;15.27;4.77;;;9.10;73.50;;;;;;5367546;26;20470;-77
2024/04/12 02:48:28;;;;;;;9.70;4.53;;;9.00;73.30;;;;;;5384061;26;20472;-78
2024/04/12 02:50:54;;;;;;;7.40;4.80;;;8.80;73.70;;;;;;5378932;26;20546;-77
2024/04/12 02:53:24;;;;;;;9.00;4.30;;;8.60;74.50;;;;;;5377765;26;20464;-78
2024/04/12 02:56:10;;;;;;;8.70;4.57;;;8.60;75.10;;;;;;5384005;26;20458;-77
2024/04/12 02:58:38;;;;;;;12.60;4.53;;;8.60;75.10;;;;;;5379812;26;20472;-78
2024/04/12 03:01:14;;;;;;;9.77;4.27;;;8.60;75.20;;;;;;5375991;26;20480;-80
2024/04/12 03:03:46;;;;;;;11.00;4.60;;;8.50;75.10;;;;;;5380142;26;20461;-77
2024/04/12 03:06:13;;;;;;;9.03;4.30;;;8.40;75.20;;;;;;5378099;26;20460;-77
2024/04/12 03:08:47;;;;;;;6.60;4.00;;;8.30;75.40;;;;;;5371405;26;20532;-77
2024/04/12 03:11:21;;;;;;;9.40;5.23;;;8.30;75.70;;;;;;5373828;26;20476;-75
2024/04/12 03:13:50;;;;;;;7.20;4.67;;;8.30;75.90;;;;;;5373206;26;21077;-75
2024/04/12 03:16:18;;;;;;;8.20;4.60;;;8.30;76.10;;;;;;5381168;26;20464;-76
2024/04/12 03:18:45;;;;;;;10.90;4.70;;;8.30;75.90;;;;;;5350361;26;20469;-75
2024/04/12 03:21:21;;;;;;;7.80;4.20;;;8.50;75.70;;;;;;5382270;26;20496;-76
2024/04/12 03:23:48;;;;;;;8.50;4.70;;;8.30;75.50;;;;;;5376663;26;20762;-74
2024/04/12 03:26:15;;;;;;;7.87;4.33;;;8.40;75.70;;;;;;5381749;26;20585;-76
2024/04/12 03:28:41;;;;;;;8.50;4.57;;;8.40;75.90;;;;;;5371666;26;20553;-75
2024/04/12 03:31:09;;;;;;;6.30;3.70;;;8.40;76.20;;;;;;5368814;26;20610;-77
2024/04/12 03:33:42;;;;;;;8.60;4.53;;;8.50;76.40;;;;;;5381812;26;20600;-77
2024/04/12 03:37:23;;;;;;;7.73;4.40;;;8.60;76.10;;;;;;5377428;26;20929;-76
2024/04/12 03:41:51;;;;;;;11.00;5.30;;;8.50;75.40;;;;;;5376286;26;20824;-75
2024/04/12 03:44:20;;;;;;;8.90;5.10;;;8.50;75.20;;;;;;5385424;26;20815;-76
2024/04/12 03:46:49;;;;;;;14.67;4.70;;;8.40;75.20;;;;;;5376347;26;20462;-76
2024/04/12 03:49:20;;;;;;;12.60;4.90;;;8.40;75.80;;;;;;5383389;26;20472;-76
2024/04/12 03:51:54;;;;;;;7.30;4.30;;;8.40;75.90;;;;;;5369543;26;20469;-77
2024/04/12 03:54:21;;;;;;;9.53;4.67;;;8.40;75.50;;;;;;5375623;26;20460;-77
2024/04/12 03:56:52;;;;;;;7.20;4.50;;;8.50;75.10;;;;;;5383067;26;20465;-73
2024/04/12 03:59:18;;;;;;;13.83;5.10;;;8.50;74.60;;;;;;5378089;26;20469;-74
2024/04/12 04:01:45;;;;;;;8.17;4.43;;;8.60;74.00;;;;;;5373942;26;20529;-77
2024/04/12 04:04:17;;;;;;;14.57;5.20;;;8.60;73.60;;;;;;5379635;26;20583;-77
2024/04/12 04:06:50;;;;;;;7.90;4.23;;;8.60;73.70;;;;;;5381125;26;20476;-76
2024/04/12 04:09:19;;;;;;;7.27;4.37;;;8.60;73.50;;;;;;5391210;26;20547;-77
2024/04/12 04:11:49;;;;;;;7.97;4.63;;;8.60;73.60;;;;;;5377674;26;20635;-76
2024/04/12 04:14:19;;;;;;;11.53;4.90;;;8.50;73.50;;;;;;5375635;26;20603;-77
2024/04/12 04:16:50;;;;;;;7.87;4.57;;;8.50;73.70;;;;;;5370607;26;20653;-76
2024/04/12 04:19:30;;;;;;;7.47;4.30;;;8.50;74.00;;;;;;5377559;26;20533;-75
2024/04/12 04:22:05;;;;;;;7.90;4.77;;;8.40;74.00;;;;;;5373183;26;20535;-77
2024/04/12 04:24:37;;;;;;;9.03;4.93;;;8.40;74.50;;;;;;5377009;26;20477;-74
2024/04/12 04:27:03;;;;;;;11.63;4.60;;;8.40;74.90;;;;;;5363929;26;20475;-75
2024/04/12 04:29:29;;;;;;;9.33;5.10;;;8.40;75.10;;;;;;5383227;26;20467;-75
2024/04/12 04:31:56;;;;;;;10.10;4.77;;;8.50;74.90;;;;;;5377667;26;20484;-75
2024/04/12 04:34:25;;;;;;;8.33;4.90;;;8.50;74.80;;;;;;5368924;26;20473;-76
2024/04/12 04:36:55;;;;;;;9.83;4.60;;;8.40;75.20;;;;;;5379769;26;20452;-74
2024/04/12 04:39:21;;;;;;;7.07;4.50;;;8.50;74.20;;;;;;5347523;26;20525;-74
2024/04/12 04:41:48;;;;;;;11.73;5.70;;;8.50;74.20;;;;;;5377327;26;20827;-75
2024/04/12 04:44:15;;;;;;;9.10;5.00;;;8.50;74.50;;;;;;5378016;26;20576;-74
2024/04/12 04:46:49;;;;;;;9.80;5.00;;;8.50;74.50;;;;;;5379365;26;20484;-75
2024/04/12 04:49:15;;;;;;;8.77;4.60;;;8.60;74.60;;;;;;5377031;26;20453;-75
2024/04/12 04:51:42;;;;;;;13.90;5.50;;;8.50;74.30;;;;;;5375130;26;20519;-74
2024/04/12 04:54:11;;;;;;;12.00;4.73;;;8.60;74.60;;;;;;5369498;26;21025;-75
2024/04/12 04:56:48;;;;;;;11.60;5.37;;;8.50;74.80;;;;;;5380797;26;20448;-76
2024/04/12 04:59:18;;;;;;;9.73;5.27;;;8.40;74.90;;;;;;5375671;26;20532;-73
2024/04/12 05:01:52;;;;;;;6.17;4.73;;;8.50;75.40;;;;;;5366396;26;20633;-75
2024/04/12 05:04:18;;;;;;;10.80;4.50;;;8.50;75.10;;;;;;5369111;26;20521;-76
2024/04/12 05:06:44;;;;;;;9.13;5.23;;;8.60;74.90;;;;;;5377490;26;20542;-76
2024/04/12 05:09:12;;;;;;;14.50;5.47;;;8.50;74.80;;;;;;5390939;26;20451;-76
2024/04/12 05:11:38;;;;;;;14.07;5.63;;;8.60;74.00;;;;;;5369899;26;20482;-75
2024/04/12 05:14:13;;;;;;;11.20;4.37;;;8.60;73.90;;;;;;5368732;26;20464;-75
2024/04/12 05:16:43;;;;;;;11.20;5.60;;;8.60;74.60;;;;;;5375131;26;20466;-75
2024/04/12 05:19:09;;;;;;;9.50;5.60;;;8.70;74.80;;;;;;5378194;26;20455;-75
2024/04/12 05:21:42;;;;;;;8.00;4.60;;;8.80;74.20;;;;;;5369692;26;20474;-76
2024/04/12 05:24:09;;;;;;;8.27;5.50;;;8.70;73.90;;;;;;5378777;26;20480;-76
2024/04/12 05:26:41;;;;;;;9.77;5.70;;;8.70;73.70;;;;;;5372294;26;20601;-75
2024/04/12 05:29:13;;;;;;;7.87;5.00;;;8.70;73.90;;;;;;5377304;26;20559;-76
2024/04/12 05:31:42;;;;;;;14.07;5.10;;;8.80;73.70;;;;;;5378363;26;20612;-77
2024/04/12 05:34:11;;;;;;;12.60;5.33;;;8.80;73.50;;;;;;5336484;26;20468;-76
2024/04/12 05:36:41;;;;;;;10.77;5.30;;;8.80;73.90;;;;;;5374487;26;20540;-76
2024/04/12 05:39:08;;;;;;;22.43;4.97;;;8.90;74.00;;;;;;5373553;26;20452;-77
2024/04/12 05:41:38;;;;;;;12.43;5.17;;;9.00;74.30;;;;;;5371197;26;20539;-75
2024/04/12 05:44:06;;;;;;;9.10;5.40;;;9.10;74.20;;;;;;5369504;26;20480;-75
2024/04/12 05:46:45;;;;;;;8.87;4.60;;;9.20;73.90;;;;;;5376369;26;20468;-73
2024/04/12 05:49:11;;;;;;;9.90;4.93;;;9.30;73.70;;;;;;5373048;26;20873;-75
2024/04/12 05:51:39;;;;;;;12.43;5.57;;;9.40;73.90;;;;;;5369269;26;21214;-76
2024/04/12 05:54:17;;;;;;;13.37;5.80;;;9.50;73.30;;;;;;5368890;26;20583;-75
2024/04/12 05:56:47;;;;;;;16.33;5.90;;;9.60;72.60;;;;;;5374574;26;20469;-74
2024/04/12 05:59:13;;;;;;;11.23;6.17;;;9.40;72.00;;;;;;5387672;26;20841;-75
2024/04/12 06:01:51;;;;;;;19.37;7.10;;;9.50;72.00;;;;;;5374866;26;20533;-75
2024/04/12 06:04:19;;;;;;;13.37;5.47;;;9.50;72.10;;;;;;5338745;26;20467;-75
2024/04/12 06:06:48;;;;;;;14.93;6.63;;;9.60;72.00;;;;;;5385108;26;20532;-74
2024/04/12 06:09:21;;;;;;;14.37;6.20;;;9.60;71.60;;;;;;5393296;26;20521;-74
2024/04/12 06:11:47;;;;;;;10.40;5.80;;;9.60;71.30;;;;;;5368059;26;20469;-75
2024/04/12 06:14:14;;;;;;;9.80;7.13;;;9.70;71.00;;;;;;5383469;26;20540;-75
2024/04/12 06:16:55;;;;;;;10.00;6.10;;;9.80;70.10;;;;;;5378775;26;20488;-76
2024/04/12 06:19:21;;;;;;;14.60;7.40;;;9.70;70.50;;;;;;5376180;26;20519;-76
2024/04/12 06:21:48;;;;;;;21.17;7.37;;;9.80;71.30;;;;;;5370989;26;20537;-75
2024/04/12 06:24:26;;;;;;;12.00;6.10;;;9.70;71.60;;;;;;5390025;26;20653;-77
2024/04/12 06:26:58;;;;;;;15.50;6.47;;;9.70;71.40;;;;;;5380291;26;20604;-76
2024/04/12 06:29:26;;;;;;;13.30;5.90;;;9.60;71.10;;;;;;5348294;26;20488;-76
2024/04/12 06:31:56;;;;;;;18.33;6.43;;;9.70;70.70;;;;;;5373714;26;20473;-75
2024/04/12 06:34:22;;;;;;;11.17;6.00;;;9.70;70.50;;;;;;5379787;26;20521;-75
2024/04/12 06:36:55;;;;;;;22.23;6.97;;;9.90;70.70;;;;;;5376821;26;20466;-74
2024/04/12 06:39:26;;;;;;;13.17;6.40;;;10.00;70.10;;;;;;5377899;26;20489;-75
2024/04/12 06:42:04;;;;;;;18.93;7.00;;;10.00;70.40;;;;;;5356357;26;20579;-75
2024/04/12 06:44:31;;;;;;;15.83;7.03;;;10.00;70.50;;;;;;5374649;26;20609;-76
2024/04/12 06:46:58;;;;;;;10.00;6.50;;;9.90;70.70;;;;;;5384886;26;20850;-74
2024/04/12 06:49:27;;;;;;;13.07;6.60;;;10.00;70.80;;;;;;5376623;26;21074;-75
2024/04/12 06:52:09;;;;;;;10.23;6.30;;;10.00;70.50;;;;;;5376135;26;20583;-75
2024/04/12 06:54:41;;;;;;;17.20;6.40;;;10.20;70.50;;;;;;5369688;26;20473;-74
2024/04/12 06:57:08;;;;;;;12.60;6.73;;;10.30;70.20;;;;;;5383380;26;20922;-74
2024/04/12 06:59:40;;;;;;;11.00;6.10;;;10.50;69.50;;;;;;5387315;26;20608;-75
2024/04/12 07:02:07;;;;;;;12.23;6.33;;;10.60;68.90;;;;;;5371982;26;20808;-76
2024/04/12 07:04:33;;;;;;;12.13;6.27;;;10.70;68.90;;;;;;5379431;26;20476;-76
2024/04/12 07:07:04;;;;;;;10.60;6.03;;;10.80;68.90;;;;;;5386728;26;20517;-74
2024/04/12 07:09:30;;;;;;;13.53;6.20;;;10.90;68.30;;;;;;5379090;26;20365;-75
2024/04/12 07:11:57;;;;;;;11.83;6.67;;;11.00;68.20;;;;;;5344079;26;20486;-74
2024/04/12 07:14:23;;;;;;;11.83;6.87;;;11.20;68.00;;;;;;5381836;26;20480;-75
2024/04/12 07:16:49;;;;;;;11.90;6.37;;;11.20;67.60;;;;;;5377369;26;20476;-73
2024/04/12 07:19:18;;;;;;;11.17;6.37;;;11.30;67.50;;;;;;5374937;26;20344;-75
2024/04/12 07:21:54;;;;;;;12.43;6.10;;;11.40;67.20;;;;;;5338698;26;20540;-73
2024/04/12 07:24:23;;;;;;;12.37;6.20;;;11.60;66.60;;;;;;5384866;26;20555;-75
2024/04/12 07:26:54;;;;;;;12.83;6.77;;;11.80;66.10;;;;;;5377575;26;20480;-73
2024/04/12 07:29:23;;;;;;;18.70;7.40;;;11.90;65.70;;;;;;5379993;26;20570;-74
2024/04/12 07:31:53;;;;;;;13.03;6.70;;;11.90;65.80;;;;;;5375890;26;21033;-74
2024/04/12 07:34:19;;;;;;;21.77;8.00;;;12.00;65.60;;;;;;5392130;26;20615;-72
2024/04/12 07:36:44;;;;;;;28.60;8.23;;;12.10;65.40;;;;;;5382069;26;20595;-74
2024/04/12 07:39:15;;;;;;;15.40;7.63;;;12.20;65.60;;;;;;5386433;26;20351;-74
2024/04/12 07:41:45;;;;;;;17.23;9.90;;;12.30;65.40;;;;;;5364523;26;20248;-75
2024/04/12 07:44:14;;;;;;;16.00;6.97;;;12.30;65.80;;;;;;5375787;26;20501;-73
2024/04/12 07:46:49;;;;;;;15.27;6.97;;;12.40;65.70;;;;;;5375503;26;20522;-73
2024/04/12 07:49:17;;;;;;;19.07;9.07;;;12.50;65.70;;;;;;5345666;26;21685;-74
2024/04/12 07:51:47;;;;;;;18.20;7.67;;;12.60;65.80;;;;;;5368194;26;20544;-74
2024/04/12 07:54:13;;;;;;;12.50;8.37;;;12.70;65.80;;;;;;5375996;26;20469;-73
2024/04/12 07:57:07;;;;;;;13.50;7.40;;;12.80;65.80;;;;;;5380930;26;20469;-73
2024/04/12 07:59:37;;;;;;;21.00;9.00;;;12.90;65.70;;;;;;5373304;26;21012;-73
2024/04/12 08:02:05;;;;;;;13.50;7.80;;;13.00;65.40;;;;;;5369695;26;20476;-73
2024/04/12 08:04:38;;;;;;;22.00;7.70;;;13.10;65.40;;;;;;5366727;26;20474;-72
2024/04/12 08:07:13;;;;;;;15.93;8.10;;;13.30;65.30;;;;;;5394329;26;20453;-74
2024/04/12 08:09:46;;;;;;;15.50;8.00;;;13.40;64.80;;;;;;5389810;26;20526;-74
2024/04/12 08:12:14;;;;;;;16.80;7.70;;;13.40;64.80;;;;;;5375400;26;20950;-72
2024/04/12 08:14:51;;;;;;;14.27;7.60;;;13.50;64.80;;;;;;5386691;26;20478;-72
2024/04/12 08:17:23;;;;;;;14.43;6.97;;;13.60;64.80;;;;;;5375101;26;20534;-74
2024/04/12 08:20:12;;;;;;;18.17;8.10;;;13.80;64.50;;;;;;5377625;26;20533;-75
2024/04/12 08:22:38;;;;;;;14.30;7.60;;;14.00;64.20;;;;;;5374998;26;20476;-74
2024/04/12 08:25:06;;;;;;;16.03;8.97;;;14.10;63.90;;;;;;5370912;26;20468;-73
2024/04/12 08:27:34;;;;;;;12.60;7.40;;;14.20;63.90;;;;;;5380673;26;20316;-73
2024/04/12 08:30:13;;;;;;;12.10;7.67;;;14.20;63.80;;;;;;5388917;26;20477;-75
2024/04/12 08:32:39;;;;;;;16.37;7.27;;;14.20;64.10;;;;;;5372365;26;20529;-74
2024/04/12 08:35:08;;;;;;;11.30;7.33;;;14.30;64.10;;;;;;5358486;26;20551;-75
2024/04/12 08:37:37;;;;;;;18.50;7.43;;;14.40;64.10;;;;;;5353022;26;20910;-73
2024/04/12 08:40:10;;;;;;;15.83;8.13;;;14.60;63.90;;;;;;5381784;26;20588;-75
2024/04/12 08:42:39;;;;;;;16.70;7.70;;;14.80;63.70;;;;;;5373273;26;20885;-75
2024/04/12 08:45:12;;;;;;;16.43;8.20;;;14.90;63.40;;;;;;5390332;26;20460;-75
2024/04/12 08:47:54;;;;;;;13.43;8.47;;;14.90;63.20;;;;;;5380156;26;20466;-76
2024/04/12 08:50:24;;;;;;;15.87;7.93;;;15.00;63.40;;;;;;5375801;26;20513;-74
2024/04/12 08:52:57;;;;;;;18.07;8.13;;;15.20;63.20;;;;;;5369217;26;20588;-73
2024/04/12 08:55:23;;;;;;;12.60;7.90;;;15.20;63.10;;;;;;5379860;26;20464;-76
2024/04/12 08:58:00;;;;;;;17.53;8.43;;;15.30;62.90;;;;;;5388165;26;20596;-75
2024/04/12 09:00:33;;;;;;;14.93;8.73;;;15.40;62.90;;;;;;5348449;26;20467;-73
2024/04/12 09:03:10;;;;;;;12.00;7.50;;;15.40;62.90;;;;;;5364532;26;20460;-75
2024/04/12 09:05:38;;;;;;;19.23;8.53;;;15.50;63.10;;;;;;5378682;26;21334;-74
2024/04/12 09:08:05;;;;;;;14.83;8.17;;;15.70;62.80;;;;;;5391091;26;20475;-76
2024/04/12 09:10:36;;;;;;;16.93;8.10;;;15.80;62.30;;;;;;5371795;26;20521;-75
2024/04/12 09:13:14;;;;;;;18.50;8.00;;;15.90;62.50;;;;;;5370065;26;20476;-73
2024/04/12 09:15:45;;;;;;;16.43;8.37;;;16.00;62.20;;;;;;5369143;26;20567;-73
2024/04/12 09:18:15;;;;;;;19.70;8.50;;;16.00;62.20;;;;;;5372157;26;20532;-76
2024/04/12 09:20:44;;;;;;;16.57;7.07;;;16.10;62.20;;;;;;5377869;26;20465;-74
2024/04/12 09:23:14;;;;;;;18.63;7.80;;;16.30;61.90;;;;;;5369188;26;20870;-72
2024/04/12 09:25:55;;;;;;;12.40;6.70;;;16.50;61.60;;;;;;5384350;26;21009;-74
2024/04/12 09:28:23;;;;;;;14.00;8.20;;;16.70;61.00;;;;;;5380163;26;20587;-74
2024/04/12 09:33:38;;;;;;;18.50;8.50;;;16.70;60.90;;;;;;5369501;26;20615;-73
2024/04/12 09:36:14;;;;;;;11.47;7.40;;;16.60;60.90;;;;;;5376175;26;20486;-73
2024/04/12 09:38:42;;;;;;;16.13;8.77;;;16.60;61.50;;;;;;5390121;26;20470;-75
2024/04/12 09:41:28;;;;;;;17.03;8.30;;;16.70;61.20;;;;;;5382949;26;20584;-72
2024/04/12 09:44:00;;;;;;;19.80;9.60;;;16.60;61.30;;;;;;5395905;26;20551;-75
2024/04/12 09:46:46;;;;;;;19.10;8.97;;;16.70;61.30;;;;;;5380312;26;20484;-73
2024/04/12 10:39:44;;;;;;;14.43;8.40;;;18.60;56.10;;;;;;5376248;26;20506;-75
2024/04/12 10:42:12;;;;;;;14.73;8.00;;;18.80;55.60;;;;;;5372414;26;20458;-75
2024/04/12 10:44:37;;;;;;;15.57;8.03;;;18.80;55.30;;;;;;5369685;26;20560;-75
2024/04/12 10:47:04;;;;;;;16.00;8.80;;;19.00;54.80;;;;;;5377352;26;20453;-75
2024/04/12 10:49:30;;;;;;;14.40;8.03;;;19.30;54.60;;;;;;5372578;26;20293;-75
2024/04/12 10:51:56;;;;;;;17.33;7.93;;;19.90;53.70;;;;;;5373281;26;20478;-73
2024/04/12 10:54:23;;;;;;;22.03;9.23;;;20.40;52.20;;;;;;5374999;26;20465;-76
2024/04/12 10:56:49;;;;;;;16.70;7.23;;;20.50;51.20;;;;;;5372037;26;20257;-73
2024/04/12 10:59:26;;;;;;;14.60;7.47;;;20.70;51.70;;;;;;5372759;26;20571;-74
2024/04/12 11:01:56;;;;;;;19.53;8.00;;;20.80;51.00;;;;;;5361635;26;20619;-74
2024/04/12 11:04:22;;;;;;;15.07;8.57;;;21.30;49.90;;;;;;5368738;26;20808;-73
2024/04/12 11:06:50;;;;;;;18.97;8.17;;;21.40;49.30;;;;;;5371738;26;20465;-73
2024/04/12 11:09:17;;;;;;;16.10;9.07;;;21.30;49.70;;;;;;5373264;26;20539;-74
2024/04/12 11:11:43;;;;;;;12.80;7.97;;;21.00;49.70;;;;;;5375917;26;20475;-74
2024/04/12 11:14:25;;;;;;;20.43;8.90;;;21.20;49.80;;;;;;5379813;26;21078;-73
2024/04/12 11:31:27;;;;;;;13.70;8.30;;;20.50;51.30;;;;;;5374653;26;21210;-73
2024/04/12 11:33:32;;;;;;;18.03;8.00;;;20.30;52.00;;;;;;5359315;26;20474;-73
2024/04/12 11:36:10;;;;;;;13.55;8.20;;;20.60;51.60;;;;;;5381875;26;20359;-75
2024/04/12 11:38:37;;;;;;;14.23;8.73;;;20.90;50.50;;;;;;5374394;26;20245;-75
2024/04/12 11:41:04;;;;;;;15.63;8.43;;;20.80;50.30;;;;;;5374905;26;20475;-73
2024/04/12 11:43:32;;;;;;;18.67;8.60;;;20.40;51.30;;;;;;5378374;26;20585;-74
2024/04/12 11:45:58;;;;;;;15.80;8.30;;;20.50;51.20;;;;;;5381025;26;20463;-77
2024/04/12 11:48:29;;;;;;;11.10;7.30;;;21.00;50.70;;;;;;5380360;26;20467;-74
2024/04/12 11:50:54;;;;;;;16.90;8.80;;;21.30;50.10;;;;;;5347268;26;20471;-76
2024/04/12 11:53:20;;;;;;;15.70;8.90;;;21.20;49.70;;;;;;5377616;26;20468;-77
2024/04/12 11:55:48;;;;;;;10.97;6.80;;;21.10;49.70;;;;;;5379809;26;20230;-76
2024/04/12 11:58:14;;;;;;;20.93;8.50;;;21.10;50.20;;;;;;5349016;26;20502;-77
2024/04/12 12:00:41;;;;;;;12.43;8.07;;;21.50;49.00;;;;;;5374338;26;20467;-77
2024/04/12 12:03:15;;;;;;;15.73;9.03;;;21.90;48.50;;;;;;5373551;26;20539;-77
2024/04/12 12:05:42;;;;;;;20.93;10.73;;;21.70;48.50;;;;;;5380288;26;20594;-77
2024/04/12 12:08:12;;;;;;;16.30;8.17;;;21.50;48.70;;;;;;5374721;26;20476;-76
2024/04/12 12:10:39;;;;;;;13.50;7.83;;;21.30;49.90;;;;;;5377393;26;20491;-77
2024/04/12 12:13:05;;;;;;;19.40;10.13;;;21.50;49.40;;;;;;5370459;26;20598;-76
2024/04/12 12:15:31;;;;;;;12.90;8.60;;;21.70;48.90;;;;;;5352600;26;20525;-76
2024/04/12 12:17:59;;;;;;;14.07;8.40;;;21.90;48.60;;;;;;5378135;26;20911;-75
2024/04/12 12:20:26;;;;;;;15.93;9.60;;;22.10;48.10;;;;;;5376358;26;20363;-78
2024/04/12 12:22:51;;;;;;;17.17;8.63;;;21.90;48.20;;;;;;5368422;26;20475;-75
2024/04/12 12:25:17;;;;;;;21.00;9.57;;;21.90;48.50;;;;;;5348850;26;21034;-77
2024/04/12 12:27:45;;;;;;;15.80;8.07;;;22.00;47.80;;;;;;5369194;26;20372;-76
2024/04/12 12:30:14;;;;;;;14.50;8.73;;;22.10;47.90;;;;;;5379056;26;20254;-76
2024/04/12 12:32:44;;;;;;;14.23;7.83;;;22.10;47.80;;;;;;5369181;26;20958;-77
2024/04/12 12:35:18;;;;;;;16.00;7.60;;;22.20;47.90;;;;;;5378739;26;21077;-77
2024/04/12 12:37:48;;;;;;;17.10;9.93;;;22.30;47.70;;;;;;5379951;26;20966;-76
2024/04/12 12:40:18;;;;;;;16.93;9.63;;;22.40;46.50;;;;;;5378214;26;20464;-76
2024/04/12 12:42:47;;;;;;;15.10;10.00;;;21.80;48.10;;;;;;5376186;26;20599;-77
2024/04/12 12:45:16;;;;;;;15.70;8.93;;;21.70;48.60;;;;;;5382185;26;20819;-76
2024/04/12 12:47:43;;;;;;;19.70;8.97;;;21.80;48.50;;;;;;5381126;26;20598;-78
2024/04/12 12:50:19;;;;;;;15.53;10.27;;;22.30;47.70;;;;;;5382931;26;20478;-77
2024/04/12 12:52:51;;;;;;;20.67;10.17;;;22.40;47.10;;;;;;5374618;26;20527;-75
2024/04/12 12:55:22;;;;;;;18.53;10.43;;;22.20;47.90;;;;;;5372786;26;20473;-77
2024/04/12 12:58:10;;;;;;;15.93;9.63;;;22.00;48.10;;;;;;5374124;26;20468;-77
2024/04/12 13:00:47;;;;;;;23.63;9.40;;;22.10;48.10;;;;;;5372841;26;20485;-76
2024/04/12 13:03:17;;;;;;;14.13;10.07;;;22.60;47.40;;;;;;5375013;26;20476;-77
2024/04/12 13:05:45;;;;;;;16.03;9.67;;;22.50;46.90;;;;;;5376882;26;20869;-75
2024/04/12 13:08:15;;;;;;;19.40;9.43;;;22.60;46.70;;;;;;5372858;26;20537;-75
2024/04/12 13:10:46;;;;;;;14.70;9.10;;;22.40;47.10;;;;;;5376637;26;20597;-75
2024/04/12 13:13:18;;;;;;;19.50;10.10;;;22.40;46.90;;;;;;5364085;26;20601;-76
2024/04/12 13:15:54;;;;;;;18.33;10.33;;;22.60;46.70;;;;;;5376785;26;20467;-77
2024/04/12 13:18:23;;;;;;;19.73;10.03;;;22.50;46.20;;;;;;5377903;26;20510;-74
2024/04/12 13:20:51;;;;;;;14.17;8.63;;;22.40;47.00;;;;;;5377557;26;20515;-75
2024/04/12 13:23:17;;;;;;;19.90;10.30;;;22.90;46.50;;;;;;5367911;26;20476;-77
2024/04/12 13:25:46;;;;;;;16.03;9.27;;;23.50;44.90;;;;;;5378893;26;21013;-76
2024/04/12 13:28:11;;;;;;;18.30;9.60;;;24.10;43.20;;;;;;5378204;26;20586;-76
2024/04/12 13:30:40;;;;;;;20.00;10.43;;;24.10;43.10;;;;;;5377841;26;21101;-77
2024/04/12 13:33:09;;;;;;;20.07;9.10;;;23.80;44.20;;;;;;5369387;26;20653;-76
2024/04/12 13:35:40;;;;;;;15.83;8.63;;;23.10;44.30;;;;;;5378310;26;20577;-76
2024/04/12 13:38:12;;;;;;;18.70;8.50;;;22.90;45.40;;;;;;5379052;26;21005;-77
2024/04/12 13:40:50;;;;;;;16.50;7.87;;;23.10;44.70;;;;;;5340603;26;20474;-76
2024/04/12 13:43:16;;;;;;;16.50;9.10;;;23.00;45.00;;;;;;5370087;26;20588;-77
2024/04/12 13:51:18;;;;;;;15.30;7.87;;;24.10;43.50;;;;;;5372592;26;20520;-75
2024/04/12 13:53:52;;;;;;;15.60;7.60;;;24.40;41.80;;;;;;5376737;26;20526;-76
2024/04/12 13:56:25;;;;;;;14.87;6.70;;;23.60;43.40;;;;;;5375216;26;20460;-76
2024/04/12 13:58:53;;;;;;;7.97;5.43;;;23.80;42.40;;;;;;5369000;26;20464;-75
2024/04/12 14:01:26;;;;;;;10.20;5.67;;;23.50;42.80;;;;;;5369944;26;20480;-77
2024/04/12 14:03:53;;;;;;;10.47;5.37;;;23.40;43.10;;;;;;5346640;26;20480;-78
2024/04/12 14:06:23;;;;;;;13.10;6.07;;;24.00;41.20;;;;;;5369569;26;20557;-76
2024/04/12 14:08:53;;;;;;;11.80;5.90;;;23.40;42.60;;;;;;5377515;26;21010;-76
2024/04/12 14:11:18;;;;;;;11.67;5.40;;;22.60;44.90;;;;;;5372482;26;20611;-75
2024/04/12 14:13:46;;;;;;;11.20;4.87;;;22.50;45.00;;;;;;5377596;26;20906;-75
2024/04/12 14:16:13;;;;;;;9.60;4.90;;;22.60;44.90;;;;;;5370889;26;20251;-77